Home > Products > Valid Products > TAF

000
FTUS43 KSGF 222300 CCA
TAFSGF
TAF COR
KSGF 222354Z 2300/2324 16014KT P6SM FEW007 OVC040
     FM230700 15015G21KT 6SM BR BKN008 OVC040 WS020/19045KT
     FM231300 15014G20KT 3SM -RA BR VCTS OVC010CB
     FM231800 17010KT 5SM -DZ OVC012=



000
FTUS43 KSGF 222300
TAFSGF
TAF
KSGF 222335Z 2300/2324 16013KT P6SM BKN007 OVC015
     FM230200 16014KT P6SM FEW007 OVC040
     FM230700 15015G21KT 6SM BR BKN008 OVC040 WS020/19045KT
     FM231300 15014G20KT 3SM -RA BR VCTS OVC010CB
     FM231800 17010KT 5SM -DZ OVC012=



000
FTUS43 KSGF 222300
TAFJLN
TAF
KJLN 222335Z 2300/2324 17012KT P6SM FEW015 BKN040 OVC150
      WS020/20045KT
      TEMPO 2300/2303 BKN015
     FM230700 17013KT 6SM BR VCSH BKN012 OVC040 WS020/20045KT
     FM231100 16011KT 4SM -SHRA BR VCTS OVC012CB
     FM231600 18011KT 5SM -DZ OVC012
     FM232200 26011KT 6SM -SHRA BR VCTS OVC012CB=



000
FTUS43 KSGF 222100 AAA
TAFSGF
TAF AMD
KSGF 222144Z 2222/2318 17012G20KT P6SM OVC009
     FM222300 15015G22KT P6SM -DZ SCT015 OVC030 WS020/19040KT
     FM230900 15015G22KT 5SM -SHRA BR SCT007 OVC010 WS015/19045KT
     FM231500 15014G22KT 3SM -RA BR VCTS OVC007CB=



000
FTUS43 KSGF 222100 AAA
TAFJLN
TAF AMD
KJLN 222108Z 2221/2318 18013KT P6SM FEW020 SCT070 OVC150
     FM230100 17014G20KT P6SM -DZ SCT015 OVC030 WS020/19040KT
      TEMPO 2302/2306 OVC012
     FM230600 17014G20KT 4SM -SHRA BR SCT007 OVC010 WS015/20050KT
     FM231200 15012G20KT 4SM -SHRA BR VCTS OVC007CB=



000
FTUS43 KSGF 221700
TAFJLN
TAF
KJLN 221738Z 2218/2318 19016G22KT P6SM VCSH SCT020 OVC070
      TEMPO 2218/2222 BKN020
     FM222300 17014G20KT P6SM -DZ SCT015 OVC030 WS020/19040KT
      TEMPO 2302/2306 OVC012
     FM230600 17014G20KT 4SM -SHRA BR SCT007 OVC010 WS015/20050KT
     FM231200 15012G20KT 4SM -SHRA BR VCTS OVC007CB=



000
FTUS43 KSGF 221700
TAFSGF
TAF
KSGF 221738Z 2218/2318 18013KT 6SM -SHRA BR BKN015 OVC050
      TEMPO 2218/2220 SCT015 OVC040
     FM222300 15015G22KT P6SM -DZ SCT015 OVC030 WS020/19040KT
     FM230900 15015G22KT 5SM -SHRA BR SCT007 OVC010 WS015/19045KT
     FM231500 15014G22KT 3SM -RA BR VCTS OVC007CB=



000
FTUS43 KSGF 221500 AAA
TAFJLN
TAF AMD
KJLN 221544Z 2216/2312 20013G20KT P6SM VCSH BKN020 OVC035
     FM222300 17014G20KT P6SM OVC015
     FM230300 17014G20KT 5SM -SHRA BR OVC010 WS015/20050KT=



000
FTUS43 KSGF 221500 AAA
TAFJLN
TAF AMD
KJLN 221544Z 2216/2312 20013G20KT P6SM VCSH BKN020 OVC035
     FM222300 17014G20KT P6SM OVC015
     FM230300 17014G20KT 5SM -SHRA BR OVC010 WS015/20050KT=



000
FTUS43 KSGF 221200 CCA
TAFSGF
TAF COR
KSGF 221157Z 2212/2312 17012KT P6SM OVC018 WS020/21045KT
     FM221600 18015G23KT P6SM -SHRA OVC020
     FM222300 15015G22KT P6SM -SHRA OVC015
     FM230700 15015G22KT 5SM -SHRA BR OVC010 WS015/19045KT=



000
FTUS43 KSGF 221100
TAFSGF
TAF
KSGF 221130Z 2212/2312 17012KT P6SM BKN025 OVC040 WS020/21045KT
     FM221600 18015G23KT P6SM -SHRA OVC020
     FM222300 15015G22KT P6SM -SHRA OVC015
     FM230700 15015G22KT 5SM -SHRA BR OVC010 WS015/19045KT=



000
FTUS43 KSGF 221100
TAFJLN
TAF
KJLN 221130Z 2212/2312 18015KT P6SM OVC018 WS020/21045KT
     FM221500 18014G22KT P6SM -SHRA OVC015
     FM222300 17014G20KT P6SM -SHRA OVC008
     FM230300 17014G20KT 5SM -SHRA BR OVC010 WS015/20050KT=



000
FTUS43 KSGF 221100 AAC
TAFSGF
TAF AMD
KSGF 221106Z 2211/2306 16015KT P6SM BKN025 OVC040 WS020/21045KT
     FM221600 17015G23KT P6SM -SHRA BKN015 OVC060
     FM222300 16015KT P6SM -SHRA OVC010=



000
FTUS43 KSGF 221000 AAB
TAFSGF
TAF AMD
KSGF 221029Z 2210/2306 16015KT P6SM SCT025 OVC035 WS020/21045KT
     FM221600 17015G23KT P6SM -SHRA BKN015 OVC060
     FM222300 16015KT P6SM -SHRA OVC010=



000
FTUS43 KSGF 221000 AAB
TAFSGF
TAF AMD
KSGF 221029Z 2210/2306 16015KT P6SM SCT025 OVC035 WS020/21045KT
     FM221600 17015G23KT P6SM -SHRA BKN015 OVC060
     FM222300 16015KT P6SM -SHRA OVC010=



000
FTUS43 KSGF 220800 AAA
TAFJLN
TAF AMD
KJLN 220823Z 2208/2306 18014KT P6SM OVC020 WS020/21045KT
     FM221500 18014G22KT P6SM -SHRA OVC015
     FM222300 17014KT P6SM -SHRA OVC010=



000
FTUS43 KSGF 220800 CCA
TAFSGF
TAF COR
KSGF 220822Z 2208/2306 16015KT P6SM OVC025 WS020/21045KT
     FM221600 17015G23KT P6SM -SHRA BKN015 OVC060
     FM222300 16015KT P6SM -SHRA OVC010=



000
FTUS43 KSGF 220800 AAA
TAFSGF
TAF AMD
KSGF 220821Z 2208/2306 16015KT P6SM OVC025
     FM221600 17015G23KT P6SM -SHRA BKN015 OVC060
     FM222300 16015KT P6SM -SHRA OVC010=



000
FTUS43 KSGF 220500
TAFSGF
TAF
KSGF 220527Z 2206/2306 16015KT 5SM BR OVC005 WS020/21045KT
      TEMPO 2206/2209 SCT007 OVC020
     FM221600 17015G23KT P6SM -SHRA BKN015 OVC060
     FM222300 16015KT P6SM -SHRA OVC010=



000
FTUS43 KSGF 220500
TAFJLN
TAF
KJLN 220527Z 2206/2306 17011G20KT P6SM OVC010 WS020/21045KT
      TEMPO 2209/2213 OVC008
     FM221500 18014G22KT P6SM -SHRA OVC015
     FM222300 17014KT P6SM -SHRA OVC010=



000
FTUS43 KSGF 220300 AAA
TAFSGF
TAF AMD
KSGF 220300Z 2203/2224 15017G23KT 5SM BR OVC004 WS019/20045KT
     FM221500 17014KT 6SM BR OVC008
     FM221900 17016G22KT P6SM -SHRA OVC010=



000
FTUS43 KSGF 220000 AAA
TAFSGF
TAF AMD
KSGF 220033Z 2201/2224 15017G23KT 6SM BR BKN008 OVC035
      WS019/20045KT
      TEMPO 2208/2212 BKN010
     FM221200 17014KT 6SM BR OVC015 WS020/20045KT
     FM221600 17016G22KT P6SM -SHRA OVC020=



000
FTUS43 KSGF 212300
TAFJLN
TAF
KJLN 212336Z 2200/2224 15011KT P6SM OVC018 WS018/19045KT
     FM220400 16012KT 6SM BR BKN010 OVC015 WS019/20045KT
     FM221500 18015G23KT P6SM -SHRA OVC018=



000
FTUS43 KSGF 212300
TAFSGF
TAF
KSGF 212336Z 2200/2224 14017G23KT P6SM BKN012 OVC035 WS019/19045KT
     FM220300 15017G23KT 6SM BR BKN008 OVC035 WS019/20045KT
      TEMPO 2208/2212 BKN010
     FM221200 17014KT 6SM BR OVC015 WS020/20045KT
     FM221600 17016G22KT P6SM -SHRA OVC020=



000
FTUS43 KSGF 212000 AAA
TAFSGF
TAF AMD
KSGF 212026Z 2120/2218 15013G21KT P6SM BKN015 OVC030
     FM212300 16015G20KT P6SM -DZ OVC015 WS020/20045KT
     FM221200 17013G21KT P6SM -SHRA OVC012 WS020/20040KT=



000
FTUS43 KSGF 211700
TAFJLN
TAF
KJLN 211738Z 2118/2218 14013G21KT P6SM OVC020
      TEMPO 2118/2121 -SHRA OVC018
     FM212300 17014KT 6SM -DZ BR OVC015 WS020/20045KT
     FM221200 18013G21KT 6SM -SHRA BR OVC012=



000
FTUS43 KSGF 211700
TAFSGF
TAF
KSGF 211738Z 2118/2218 15015G23KT P6SM OVC020
      TEMPO 2118/2120 OVC018
     FM212300 16015G20KT P6SM -DZ OVC015 WS020/20045KT
     FM221200 17013G21KT P6SM -SHRA OVC012 WS020/20040KT=



000
FTUS43 KSGF 211500 AAA
TAFJLN
TAF AMD
KJLN 211521Z 2115/2212 12008KT P6SM BKN015 OVC025
      TEMPO 2115/2118 4SM -SHRA OVC015
     FM211800 15009KT P6SM OVC015
     FM220000 16014KT P6SM OVC015 WS020/20045KT=



000
FTUS43 KSGF 211100 CCA
TAFSGF
TAF COR
KSGF 211139Z 2112/2212 15013G18KT P6SM OVC015
      TEMPO 2114/2118 5SM -RADZ BR
     FM212100 15015G22KT 6SM -DZ OVC008
     FM220100 16015G20KT P6SM OVC015 WS020/20040KT
     FM220600 17015KT P6SM OVC020 WS020/20040KT=



000
FTUS43 KSGF 211100 CCA
TAFJLN
TAF COR
KJLN 211139Z 2112/2212 12008KT P6SM OVC015
      TEMPO 2112/2116 5SM -RADZ
     FM211600 15014KT P6SM -DZ OVC015
     FM220000 16014KT P6SM OVC015 WS020/20045KT=



000
FTUS43 KSGF 211100
TAFJLN
TAF
KJLN 211138Z 2112/2212 12008KT P6SM OVC015
      TEMPO 2112/2116 5SM -RADZ
     FM211600 15014KT P6SM -DZ OVC015
     FM220000 16014KT P6SM OVC015=



000
FTUS43 KSGF 211100
TAFSGF
TAF
KSGF 211138Z 2112/2212 15013G18KT P6SM OVC015
      TEMPO 2114/2118 5SM -RADZ BR
     FM212100 15015G22KT 6SM -DZ OVC008
     FM220100 16015G20KT P6SM OVC015 WS020/20040KT
     FM220600 17015KT P6SM OVC020=



000
FTUS43 KSGF 210800 AAA
TAFSGF
TAF AMD
KSGF 210852Z 2109/2206 13012KT P6SM SCT013
     FM211000 13013KT P6SM OVC013
     FM211500 14015G22KT P6SM -DZ OVC012
      TEMPO 2115/2119 4SM -RADZ BR
     FM212200 15014KT 4SM -DZ BR OVC008 WS020/19045KT=



000
FTUS43 KSGF 210800 AAA
TAFJLN
TAF AMD
KJLN 210846Z 2109/2206 09007KT P6SM OVC015
     FM211400 12010KT P6SM OVC012
      TEMPO 2114/2118 4SM -RADZ
     FM211800 15012G17KT P6SM BKN012 OVC020
     FM212300 16013KT 5SM -DZ BR OVC008 WS019/20040KT=



000
FTUS43 KSGF 210500
TAFSGF
TAF
KSGF 210536Z 2106/2206 10010KT P6SM FEW030 SCT200
     FM211200 13013KT P6SM BKN020 OVC200
     FM211500 14015G23KT P6SM VCSH BKN015 OVC040 PROB30 2115/2120
      5SM -DZ
     FM212000 14013G19KT P6SM VCSH BKN015 OVC040 WS020/19040KT
     FM220000 15014KT 6SM BR VCSH BKN008 OVC035 WS020/19045KT=



000
FTUS43 KSGF 210500
TAFJLN
TAF
KJLN 210536Z 2106/2206 08007KT P6SM FEW250
     FM211000 09007KT P6SM SCT020 OVC040
     FM211200 10008KT P6SM BKN020 OVC040
     FM211400 13011G18KT P6SM VCSH BKN015 OVC040 PROB30 2115/2120
      5SM -DZ
     FM212000 15011G18KT P6SM VCSH BKN015 OVC040 WS020/19040KT
     FM220100 16013KT 6SM BR VCSH BKN009 OVC035 WS019/20040KT=



000
FTUS43 KSGF 202300
TAFJLN
TAF
KJLN 202337Z 2100/2124 06007KT P6SM FEW250
     FM211000 10008KT P6SM SCT020 OVC040
     FM211200 11010KT P6SM BKN020 OVC040
     FM211500 13013G19KT P6SM VCSH BKN015 OVC040 PROB30 2115/2120
      5SM -DZ
     FM212000 14011G18KT P6SM VCSH BKN015 OVC040=



000
FTUS43 KSGF 202300
TAFSGF
TAF
KSGF 202337Z 2100/2124 06008KT P6SM FEW250
     FM210500 11010KT P6SM SCT030 BKN200
     FM211200 13014KT P6SM BKN020
     FM211500 14017G23KT P6SM VCSH BKN020 OVC040 PROB30 2115/2120
      5SM -DZ
     FM212000 14015G21KT P6SM VCSH BKN015 OVC040=



000
FTUS43 KSGF 201700
TAFSGF
TAF
KSGF 201740Z 2018/2118 07007KT P6SM SKC
     FM210000 09008KT P6SM SCT250
     FM210600 13011KT P6SM FEW020 BKN100 OVC250
     FM211200 13014KT P6SM OVC015=



000
FTUS43 KSGF 201700
TAFJLN
TAF
KJLN 201740Z 2018/2118 08006KT P6SM SKC
     FM210000 08006KT P6SM SCT250
     FM210600 10006KT P6SM FEW020 BKN100 OVC250
     FM211200 13010KT P6SM OVC015=



000
FTUS43 KSGF 201100
TAFSGF
TAF
KSGF 201126Z 2012/2112 VRB05KT P6SM SKC
     FM202100 11008KT P6SM SCT100=



000
FTUS43 KSGF 201100
TAFJLN
TAF
KJLN 201126Z 2012/2112 VRB05KT P6SM SKC=



000
FTUS43 KSGF 200500
TAFJLN
TAF
KJLN 200520Z 2006/2106 VRB04KT P6SM SKC
     FM201500 09005KT P6SM SKC
     FM210000 09005KT P6SM SCT050=



000
FTUS43 KSGF 200500
TAFSGF
TAF
KSGF 200520Z 2006/2106 VRB04KT P6SM SKC
     FM201500 10005KT P6SM SKC
     FM210000 10008KT P6SM SCT050=



    US Dept of Commerce
    National Oceanic and Atmospheric Administration
    National Weather Service
    1325 East West Highway
    Silver Spring, MD 20910
    Page Author: NWS Internet Services Team
Disclaimer
Information Quality
Credits
Glossary
Privacy Policy
Freedom of Information Act (FOIA)
About Us
Career Opportunities